createdAt,value
2023-04-26T00:02:12.544Z,7.65
2023-04-26T00:04:43.442Z,7.10
2023-04-26T00:07:10.447Z,7.95
2023-04-26T00:09:37.334Z,7.75
2023-04-26T00:12:06.697Z,7.28
2023-04-26T00:14:34.115Z,7.60
2023-04-26T00:17:03.322Z,8.43
2023-04-26T00:19:30.923Z,8.27
2023-04-26T00:21:58.826Z,7.35
2023-04-26T00:24:25.875Z,8.23
2023-04-26T00:26:56.052Z,7.85
2023-04-26T00:29:23.689Z,8.05
2023-04-26T00:31:50.676Z,7.22
2023-04-26T00:34:19.835Z,8.82
2023-04-26T00:36:48.832Z,8.15
2023-04-26T00:39:16.245Z,8.45
2023-04-26T00:44:09.945Z,8.10
2023-04-26T00:46:36.896Z,8.35
2023-04-26T00:49:06.059Z,7.93
2023-04-26T00:51:33.346Z,7.95
2023-04-26T00:56:30.813Z,7.35
2023-04-26T00:58:57.899Z,8.80
2023-04-26T01:01:29.505Z,8.85
2023-04-26T01:03:59.353Z,8.68
2023-04-26T01:06:33.178Z,9.05
2023-04-26T01:09:05.097Z,8.98
2023-04-26T01:11:33.368Z,9.10
2023-04-26T01:14:00.859Z,9.40
2023-04-26T01:16:30.991Z,10.30
2023-04-26T01:18:57.959Z,9.80
2023-04-26T01:21:25.588Z,9.55
2023-04-26T01:23:55.214Z,8.77
2023-04-26T01:26:24.274Z,9.00
2023-04-26T01:28:51.423Z,9.75
2023-04-26T01:33:47.693Z,9.95
2023-04-26T01:36:14.567Z,10.10
2023-04-26T01:38:41.576Z,9.93
2023-04-26T01:41:08.604Z,10.45
2023-04-26T01:43:35.890Z,9.73
2023-04-26T01:46:03.084Z,10.00
2023-04-26T01:48:30.164Z,9.80
2023-04-26T01:50:59.451Z,9.30
2023-04-26T01:53:28.613Z,9.00
2023-04-26T01:55:55.794Z,9.25
2023-04-26T01:58:22.694Z,9.95
2023-04-26T02:00:49.794Z,9.63
2023-04-26T02:03:17.621Z,10.15
2023-04-26T02:05:44.655Z,10.30
2023-04-26T02:08:13.963Z,9.98
2023-04-26T02:10:43.269Z,9.55
2023-04-26T02:13:12.636Z,8.95
2023-04-26T02:15:39.523Z,9.80
2023-04-26T02:18:06.649Z,9.45
2023-04-26T02:20:33.805Z,9.95
2023-04-26T02:23:03.039Z,9.50
2023-04-26T02:25:32.281Z,10.10
2023-04-26T02:27:59.152Z,11.10
2023-04-26T02:30:26.150Z,11.52
2023-04-26T02:32:54.706Z,12.30
2023-04-26T02:35:22.032Z,11.43
2023-04-26T02:45:10.404Z,10.23
2023-04-26T02:50:07.776Z,10.63
2023-04-26T02:52:37.926Z,11.10
2023-04-26T02:55:05.443Z,10.90
2023-04-26T02:57:33.017Z,10.52
2023-04-26T03:00:00.807Z,10.48
2023-04-26T03:02:27.899Z,9.52
2023-04-26T03:04:56.079Z,9.60
2023-04-26T03:07:25.282Z,9.18
2023-04-26T03:09:54.558Z,9.35
2023-04-26T03:12:26.153Z,9.43
2023-04-26T03:14:55.217Z,9.45
2023-04-26T03:17:24.372Z,8.88
2023-04-26T03:19:51.427Z,10.35
2023-04-26T03:22:18.695Z,10.30
2023-04-26T03:24:51.606Z,9.73
2023-04-26T03:27:18.722Z,12.07
2023-04-26T03:29:47.786Z,11.48
2023-04-26T03:32:15.051Z,11.30
2023-04-26T03:34:48.603Z,11.32
2023-04-26T03:37:15.808Z,12.80
2023-04-26T03:39:45.464Z,13.43
2023-04-26T03:42:14.028Z,13.52
2023-04-26T03:44:45.722Z,13.15
2023-04-26T03:47:15.765Z,12.15
2023-04-26T03:49:45.091Z,13.25
2023-04-26T03:52:12.027Z,13.95
2023-04-26T03:54:38.872Z,14.23
2023-04-26T03:57:07.963Z,12.88
2023-04-26T03:59:34.899Z,13.25
2023-04-26T04:02:02.074Z,13.30
2023-04-26T04:04:29.141Z,12.70
2023-04-26T04:06:58.676Z,12.07
2023-04-26T04:09:26.096Z,12.65
2023-04-26T04:11:56.093Z,11.40
2023-04-26T04:14:23.303Z,11.48
2023-04-26T04:16:52.309Z,11.23
2023-04-26T04:19:19.509Z,12.13
2023-04-26T04:21:49.455Z,11.65
2023-04-26T04:24:21.914Z,10.77
2023-04-26T04:26:52.357Z,11.63
2023-04-26T04:29:19.528Z,10.90
2023-04-26T04:31:47.178Z,9.88
2023-04-26T04:34:16.693Z,9.95
2023-04-26T04:36:44.698Z,9.77
2023-04-26T04:39:16.119Z,10.00
2023-04-26T04:41:48.313Z,8.40
2023-04-26T04:44:17.710Z,8.45
2023-04-26T04:46:45.236Z,7.22
2023-04-26T04:51:39.859Z,8.57
2023-04-26T04:54:14.802Z,8.43
2023-04-26T04:56:42.581Z,8.40
2023-04-26T04:59:11.604Z,8.52
2023-04-26T05:01:41.181Z,9.23
2023-04-26T05:04:11.729Z,9.02
2023-04-26T05:09:08.328Z,8.65
2023-04-26T05:11:38.723Z,8.65
2023-04-26T05:14:07.672Z,8.82
2023-04-26T05:16:38.403Z,9.13
2023-04-26T05:19:08.043Z,10.30
2023-04-26T05:21:38.831Z,9.45
2023-04-26T05:24:08.850Z,9.60
2023-04-26T05:26:38.510Z,10.63
2023-04-26T05:29:31.514Z,9.68
2023-04-26T05:32:04.332Z,9.57
2023-04-26T05:34:41.326Z,9.65
2023-04-26T05:37:11.749Z,9.45
2023-04-26T05:39:41.683Z,11.02
2023-04-26T05:42:08.715Z,11.15
2023-04-26T05:44:36.497Z,11.18
2023-04-26T05:47:05.883Z,10.48
2023-04-26T05:49:32.922Z,12.60
2023-04-26T05:52:00.869Z,11.02
2023-04-26T05:54:28.330Z,11.13
2023-04-26T05:56:57.854Z,10.45
2023-04-26T05:59:26.947Z,10.15
2023-04-26T06:01:57.146Z,9.43
2023-04-26T06:04:24.758Z,7.90
2023-04-26T06:07:04.210Z,7.68
2023-04-26T06:09:34.335Z,8.90
2023-04-26T06:12:02.317Z,8.27
2023-04-26T06:14:31.141Z,7.97
2023-04-26T06:17:03.916Z,9.32
2023-04-26T06:19:30.989Z,10.23
2023-04-26T06:21:57.901Z,10.27
2023-04-26T06:24:27.929Z,10.38
2023-04-26T06:26:57.419Z,10.77
2023-04-26T06:29:24.461Z,10.93
2023-04-26T06:31:53.723Z,10.68
2023-04-26T06:34:23.579Z,10.68
2023-04-26T06:36:50.877Z,9.98
2023-04-26T06:39:18.752Z,9.30
2023-04-26T06:41:49.603Z,10.00
2023-04-26T06:44:28.533Z,9.85
2023-04-26T06:47:04.456Z,9.85
2023-04-26T06:49:32.209Z,8.95
2023-04-26T06:51:59.211Z,9.50
2023-04-26T06:54:34.558Z,8.75
2023-04-26T06:57:05.056Z,9.10
2023-04-26T06:59:32.145Z,8.68
2023-04-26T07:01:59.802Z,9.30
2023-04-26T07:04:26.986Z,9.00
2023-04-26T07:09:24.105Z,8.57
2023-04-26T07:11:51.277Z,7.30
2023-04-26T07:14:18.964Z,8.10
2023-04-26T07:16:48.220Z,8.05
2023-04-26T07:19:15.133Z,8.82
2023-04-26T07:21:44.452Z,7.70
2023-04-26T07:24:13.895Z,6.57
2023-04-26T07:26:41.361Z,7.13
2023-04-26T07:29:10.796Z,6.80
2023-04-26T07:31:37.799Z,5.85
2023-04-26T07:34:04.732Z,6.10
2023-04-26T07:36:33.916Z,5.68
2023-04-26T07:39:00.891Z,5.43
2023-04-26T07:41:27.983Z,5.55
2023-04-26T07:43:55.126Z,5.05
2023-04-26T07:46:22.453Z,5.22
2023-04-26T07:48:52.024Z,5.50
2023-04-26T07:51:21.249Z,4.72
2023-04-26T07:53:48.178Z,4.25
2023-04-26T07:56:15.461Z,4.30
2023-04-26T07:58:44.958Z,3.83
2023-04-26T08:01:16.974Z,3.70
2023-04-26T08:03:47.690Z,3.50
2023-04-26T08:06:18.126Z,4.30
2023-04-26T08:08:49.165Z,3.17
2023-04-26T08:11:16.875Z,3.92
2023-04-26T08:13:46.861Z,3.65
2023-04-26T08:16:14.153Z,3.50
2023-04-26T08:21:07.938Z,3.30
2023-04-26T08:23:40.773Z,2.95
2023-04-26T08:26:07.730Z,3.17
2023-04-26T08:28:35.777Z,2.60
2023-04-26T08:31:02.859Z,2.97
2023-04-26T08:33:34.190Z,2.85
2023-04-26T08:36:03.271Z,3.30
2023-04-26T08:38:31.017Z,3.25
2023-04-26T08:41:02.451Z,3.90
2023-04-26T08:43:30.072Z,3.95
2023-04-26T08:45:59.828Z,3.60
2023-04-26T08:48:32.863Z,4.18
2023-04-26T08:51:01.494Z,3.65
2023-04-26T08:53:30.231Z,3.75
2023-04-26T08:55:57.685Z,3.40
2023-04-26T08:58:25.002Z,4.25
2023-04-26T09:03:19.267Z,3.88
2023-04-26T09:05:49.993Z,3.47
2023-04-26T09:08:19.969Z,3.60
2023-04-26T09:10:47.191Z,3.50
2023-04-26T09:13:14.681Z,3.75
2023-04-26T09:15:42.133Z,3.55
2023-04-26T09:18:18.338Z,4.07
2023-04-26T09:20:46.407Z,3.97
2023-04-26T09:23:17.135Z,3.63
2023-04-26T09:25:44.183Z,3.60
2023-04-26T09:28:22.771Z,3.88
2023-04-26T09:30:52.151Z,3.70
2023-04-26T09:33:19.613Z,3.58
2023-04-26T09:35:48.917Z,3.65
2023-04-26T09:38:17.939Z,3.70
2023-04-26T09:40:51.312Z,4.07
2023-04-26T09:43:22.635Z,3.20
2023-04-26T09:45:59.146Z,4.10
2023-04-26T09:48:28.764Z,3.88
2023-04-26T09:50:59.950Z,3.58
2023-04-26T09:53:34.763Z,4.20
2023-04-26T09:56:10.932Z,4.30
2023-04-26T09:58:40.246Z,3.40
2023-04-26T10:01:13.148Z,3.83
2023-04-26T10:03:41.952Z,3.30
2023-04-26T10:06:09.223Z,4.70
2023-04-26T10:08:36.770Z,4.50
2023-04-26T10:11:05.103Z,3.30
2023-04-26T10:13:35.031Z,3.30
2023-04-26T10:16:02.860Z,3.70
2023-04-26T10:18:31.514Z,3.83
2023-04-26T10:21:11.816Z,3.40
2023-04-26T10:23:39.713Z,3.17
2023-04-26T10:26:07.620Z,3.15
2023-04-26T10:28:41.396Z,2.78
2023-04-26T10:31:10.744Z,3.00
2023-04-26T10:33:37.986Z,2.75
2023-04-26T10:38:39.646Z,3.00
2023-04-26T10:41:29.281Z,3.00
2023-04-26T10:43:56.509Z,3.13
2023-04-26T10:49:26.296Z,3.08
2023-04-26T10:56:32.190Z,2.15
2023-04-26T10:59:28.550Z,2.33
2023-04-26T11:02:03.434Z,2.70
2023-04-26T11:08:44.748Z,2.40
2023-04-26T11:11:12.670Z,2.53
2023-04-26T11:13:41.981Z,2.20
2023-04-26T11:16:16.552Z,2.10
2023-04-26T11:18:45.956Z,1.90
2023-04-26T11:21:17.554Z,2.35
2023-04-26T11:23:54.187Z,2.25
2023-04-26T11:26:21.190Z,1.98
2023-04-26T11:28:50.906Z,2.30
2023-04-26T11:31:19.284Z,2.15
2023-04-26T11:33:49.205Z,2.17
2023-04-26T11:36:22.150Z,2.30
2023-04-26T11:38:55.994Z,2.45
2023-04-26T11:41:25.453Z,2.80
2023-04-26T11:43:52.474Z,2.28
2023-04-26T11:46:22.086Z,2.40
2023-04-26T11:48:49.315Z,2.65
2023-04-26T11:51:19.097Z,2.30
2023-04-26T11:53:48.285Z,2.30
2023-04-26T11:56:24.150Z,2.25
2023-04-26T11:58:55.164Z,2.00
2023-04-26T12:01:30.138Z,2.13
2023-04-26T12:03:59.185Z,2.47
2023-04-26T12:06:42.602Z,2.53
2023-04-26T12:09:11.813Z,2.75
2023-04-26T12:11:41.837Z,2.42
2023-04-26T12:14:13.461Z,2.67
2023-04-26T12:16:43.343Z,2.55
2023-04-26T12:19:11.322Z,2.47
2023-04-26T12:21:44.295Z,2.75
2023-04-26T12:24:25.111Z,2.53
2023-04-26T12:26:53.037Z,2.30
2023-04-26T12:29:22.075Z,2.38
2023-04-26T12:31:49.111Z,2.40
2023-04-26T12:34:16.383Z,2.65
2023-04-26T12:36:44.710Z,2.92
2023-04-26T12:39:13.943Z,2.45
2023-04-26T12:41:42.361Z,2.80
2023-04-26T12:44:13.094Z,2.40
2023-04-26T12:46:43.599Z,2.70
2023-04-26T12:49:10.731Z,2.60
2023-04-26T12:51:37.695Z,2.90
2023-04-26T12:54:06.769Z,2.53
2023-04-26T12:56:44.039Z,2.35
2023-04-26T12:59:11.412Z,2.40
2023-04-26T13:04:10.858Z,2.63
2023-04-26T13:06:40.263Z,3.45
2023-04-26T13:09:08.861Z,2.58
2023-04-26T13:11:35.876Z,2.75
2023-04-26T13:14:06.966Z,2.70
2023-04-26T13:16:34.234Z,2.38
2023-04-26T13:23:58.228Z,2.60
2023-04-26T13:26:27.105Z,2.63
2023-04-26T13:28:57.457Z,2.30
2023-04-26T13:31:27.320Z,2.40
2023-04-26T13:36:24.503Z,2.20
2023-04-26T13:38:53.808Z,2.50
2023-04-26T13:41:22.396Z,5.20
2023-04-26T13:43:50.011Z,2.88
2023-04-26T13:46:19.520Z,2.25
2023-04-26T13:48:46.477Z,2.53
2023-04-26T13:51:13.432Z,2.83
2023-04-26T13:53:40.669Z,2.63
2023-04-26T13:58:36.759Z,2.92
2023-04-26T14:03:33.584Z,2.22
2023-04-26T14:06:03.564Z,2.70
2023-04-26T14:08:33.176Z,2.60
2023-04-26T14:11:00.184Z,2.60
2023-04-26T14:13:27.203Z,2.72
2023-04-26T14:15:56.992Z,2.28
2023-04-26T14:18:26.161Z,2.30
2023-04-26T14:20:55.823Z,2.17
2023-04-26T14:23:22.779Z,2.70
2023-04-26T14:25:53.348Z,2.38
2023-04-26T14:28:24.609Z,2.35
2023-04-26T14:30:54.199Z,2.95
2023-04-26T14:33:23.741Z,2.67
2023-04-26T14:35:51.983Z,2.65
2023-04-26T14:38:18.877Z,2.50
2023-04-26T14:40:48.107Z,2.53
2023-04-26T14:43:18.120Z,2.30
2023-04-26T14:45:45.628Z,2.65
2023-04-26T14:48:12.697Z,2.40
2023-04-26T14:50:39.704Z,2.25
2023-04-26T14:53:06.860Z,2.75
2023-04-26T14:55:37.162Z,2.72
2023-04-26T14:58:06.251Z,2.80
2023-04-26T15:00:33.216Z,2.40
2023-04-26T15:03:00.345Z,2.40
2023-04-26T15:05:30.448Z,2.10
2023-04-26T15:07:57.392Z,2.40
2023-04-26T15:10:26.752Z,2.70
2023-04-26T15:12:56.333Z,2.70
2023-04-26T15:15:23.406Z,2.10
2023-04-26T15:17:50.819Z,2.38
2023-04-26T15:20:20.149Z,2.40
2023-04-26T15:22:49.472Z,2.50
2023-04-26T15:25:19.196Z,18.73
2023-04-26T15:27:46.947Z,2.75
2023-04-26T15:30:14.178Z,2.70
2023-04-26T15:32:46.385Z,2.30
2023-04-26T15:35:15.067Z,2.58
2023-04-26T15:37:42.101Z,2.40
2023-04-26T15:40:14.261Z,2.58
2023-04-26T15:42:41.424Z,2.60
2023-04-26T15:45:09.013Z,2.47
2023-04-26T15:47:37.103Z,7.97
2023-04-26T15:50:07.816Z,2.55
2023-04-26T15:52:39.191Z,2.40
2023-04-26T15:55:09.429Z,2.25
2023-04-26T15:57:36.784Z,2.58
2023-04-26T16:02:34.523Z,2.30
2023-04-26T16:05:01.841Z,1.98
2023-04-26T16:12:22.981Z,2.28
2023-04-26T16:14:51.629Z,2.50
2023-04-26T16:17:20.819Z,2.55
2023-04-26T16:19:48.503Z,2.53
2023-04-26T16:22:20.350Z,2.40
2023-04-26T16:24:47.353Z,2.60
2023-04-26T16:27:14.312Z,2.40
2023-04-26T16:29:41.200Z,2.38
2023-04-26T16:32:13.913Z,2.65
2023-04-26T16:34:43.542Z,2.20
2023-04-26T16:37:10.520Z,2.33
2023-04-26T16:39:37.565Z,2.08
2023-04-26T16:42:05.419Z,2.40
2023-04-26T16:44:32.356Z,2.33
2023-04-26T16:46:59.368Z,2.00
2023-04-26T16:49:28.772Z,2.40
2023-04-26T16:51:58.952Z,2.58
2023-04-26T16:54:28.463Z,2.22
2023-04-26T16:56:56.167Z,2.45
2023-04-26T16:59:25.510Z,2.10
2023-04-26T17:01:53.358Z,2.40
2023-04-26T17:04:20.641Z,2.20
2023-04-26T17:09:14.876Z,2.30
2023-04-26T17:14:11.139Z,2.20
2023-04-26T17:16:38.106Z,2.40
2023-04-26T17:19:09.348Z,2.38
2023-04-26T17:21:38.799Z,2.53
2023-04-26T17:24:06.006Z,2.78
2023-04-26T17:26:35.220Z,2.22
2023-04-26T17:29:04.454Z,2.30
2023-04-26T17:31:31.465Z,2.10
2023-04-26T17:34:04.872Z,2.80
2023-04-26T17:36:32.044Z,2.63
2023-04-26T17:38:58.952Z,2.70
2023-04-26T17:41:26.119Z,3.00
2023-04-26T17:43:53.024Z,3.45
2023-04-26T17:46:20.136Z,3.10
2023-04-26T17:48:47.144Z,2.90
2023-04-26T17:51:14.192Z,4.43
2023-04-26T17:53:41.091Z,3.30
2023-04-26T17:56:10.025Z,3.22
2023-04-26T17:58:37.146Z,3.00
2023-04-26T18:01:04.844Z,2.97
2023-04-26T18:03:32.491Z,3.10
2023-04-26T18:05:59.467Z,3.15
2023-04-26T18:08:28.635Z,3.05
2023-04-26T18:10:57.622Z,3.38
2023-04-26T18:13:26.739Z,3.10
2023-04-26T18:15:56.120Z,3.80
2023-04-26T18:18:24.598Z,2.88
2023-04-26T18:20:54.742Z,4.28
2023-04-26T18:23:21.770Z,6.63
2023-04-26T18:25:50.454Z,6.47
2023-04-26T18:28:17.489Z,2.95
2023-04-26T18:30:44.512Z,3.13
2023-04-26T18:33:11.707Z,3.40
2023-04-26T18:35:38.592Z,3.00
2023-04-26T18:38:05.601Z,2.80
2023-04-26T18:40:35.794Z,2.80
2023-04-26T18:43:06.314Z,3.30
2023-04-26T18:45:35.502Z,3.40
2023-04-26T18:48:05.840Z,2.75
2023-04-26T18:53:02.303Z,2.80
2023-04-26T18:55:29.251Z,2.88
2023-04-26T18:57:58.285Z,3.08
2023-04-26T19:00:27.653Z,2.75
2023-04-26T19:02:57.120Z,3.45
2023-04-26T19:05:24.469Z,3.00
2023-04-26T19:07:54.506Z,3.00
2023-04-26T19:10:24.015Z,2.92
2023-04-26T19:12:51.485Z,2.67
2023-04-26T19:15:18.676Z,2.90
2023-04-26T19:17:46.614Z,2.70
2023-04-26T19:20:16.288Z,2.60
2023-04-26T19:22:45.304Z,2.47
2023-04-26T19:25:20.534Z,3.00
2023-04-26T19:27:50.648Z,2.75
2023-04-26T19:30:19.955Z,2.85
2023-04-26T19:32:49.182Z,2.53
2023-04-26T19:35:18.268Z,7.13
2023-04-26T19:37:45.633Z,3.42
2023-04-26T19:42:44.687Z,2.95
2023-04-26T19:45:11.949Z,2.80
2023-04-26T19:47:43.953Z,3.20
2023-04-26T19:50:11.262Z,3.15
2023-04-26T19:55:06.067Z,3.50
2023-04-26T19:57:33.006Z,3.00
2023-04-26T20:00:00.025Z,3.13
2023-04-26T20:02:27.430Z,3.00
2023-04-26T20:04:54.581Z,3.10
2023-04-26T20:07:24.668Z,3.33
2023-04-26T20:09:51.698Z,3.70
2023-04-26T20:12:27.196Z,3.40
2023-04-26T20:15:04.199Z,3.13
2023-04-26T20:17:35.976Z,3.10
2023-04-26T20:20:03.745Z,2.85
2023-04-26T20:22:35.989Z,2.90
2023-04-26T20:25:05.537Z,3.15
2023-04-26T20:27:32.813Z,2.58
2023-04-26T20:29:59.980Z,2.67
2023-04-26T20:32:27.168Z,2.40
2023-04-26T20:34:54.378Z,2.50
2023-04-26T20:37:23.712Z,2.42
2023-04-26T20:39:50.739Z,2.58
2023-04-26T20:42:17.931Z,2.50
2023-04-26T20:44:44.902Z,2.88
2023-04-26T20:47:12.042Z,2.80
2023-04-26T20:49:42.048Z,2.88
2023-04-26T20:52:10.575Z,2.33
2023-04-26T20:54:43.015Z,2.95
2023-04-26T20:57:10.318Z,2.35
2023-04-26T21:02:10.453Z,2.53
2023-04-26T21:04:47.645Z,2.63
2023-04-26T21:07:22.953Z,2.90
2023-04-26T21:09:50.060Z,2.72
2023-04-26T21:12:20.731Z,2.88
2023-04-26T21:14:50.304Z,3.20
2023-04-26T21:19:45.028Z,2.90
2023-04-26T21:22:20.727Z,3.13
2023-04-26T21:24:50.985Z,2.97
2023-04-26T21:27:19.076Z,2.90
2023-04-26T21:29:48.589Z,2.72
2023-04-26T21:32:15.734Z,3.03
2023-04-26T21:34:42.636Z,2.90
2023-04-26T21:37:16.727Z,3.13
2023-04-26T21:39:45.144Z,3.10
2023-04-26T21:42:14.579Z,2.80
2023-04-26T21:44:43.990Z,3.00
2023-04-26T21:47:11.084Z,2.92
2023-04-26T21:49:39.582Z,3.25
2023-04-26T21:52:09.077Z,3.00
2023-04-26T21:54:40.689Z,2.75
2023-04-26T21:57:07.750Z,3.35
2023-04-26T21:59:42.169Z,3.20
2023-04-26T22:02:09.216Z,3.10
2023-04-26T22:04:36.097Z,3.40
2023-04-26T22:07:10.022Z,3.22
2023-04-26T22:09:37.050Z,2.90
2023-04-26T22:12:06.529Z,3.00
2023-04-26T22:14:36.014Z,4.00
2023-04-26T22:17:05.205Z,4.28
2023-04-26T22:19:32.098Z,4.30
2023-04-26T22:22:01.355Z,3.83
2023-04-26T22:24:28.502Z,4.40
2023-04-26T22:26:55.419Z,3.83
2023-04-26T22:29:22.319Z,4.13
2023-04-26T22:31:49.295Z,3.90
2023-04-26T22:34:16.290Z,3.58
2023-04-26T22:36:43.211Z,4.18
2023-04-26T22:39:13.318Z,3.97
2023-04-26T22:41:40.617Z,4.30
2023-04-26T22:44:07.697Z,3.92
2023-04-26T22:46:34.858Z,4.20
2023-04-26T22:49:01.738Z,4.20
2023-04-26T22:51:28.677Z,4.05
2023-04-26T22:53:58.007Z,4.20
2023-04-26T22:56:24.894Z,3.22
2023-04-26T22:58:51.698Z,3.95
2023-04-26T23:01:20.888Z,2.90
2023-04-26T23:03:50.213Z,3.33
2023-04-26T23:06:17.158Z,3.22
2023-04-26T23:08:46.196Z,3.75
2023-04-26T23:11:13.124Z,3.60
2023-04-26T23:13:42.266Z,3.58
2023-04-26T23:16:09.286Z,3.20
2023-04-26T23:18:38.409Z,3.38
2023-04-26T23:21:08.330Z,3.20
2023-04-26T23:23:37.613Z,3.58
2023-04-26T23:26:08.250Z,3.58
2023-04-26T23:28:35.521Z,3.22
2023-04-26T23:31:04.770Z,3.20
2023-04-26T23:33:31.699Z,3.63
2023-04-26T23:35:58.527Z,3.30
2023-04-26T23:38:27.793Z,3.30
2023-04-26T23:40:54.660Z,3.70
2023-04-26T23:43:21.790Z,3.15
2023-04-26T23:45:49.158Z,3.35
2023-04-26T23:48:17.389Z,3.42
2023-04-26T23:50:46.303Z,3.15
2023-04-26T23:53:13.193Z,3.55
2023-04-26T23:55:42.229Z,3.40
2023-04-26T23:58:09.199Z,3.50
